Hlavní strana
METAR-TAF:

METAR-TAF

Letiště :

Antofagasta, Chile

zeměpisná šířka: 23-26S, zeměpisná délka: 070-26W, výška: 135 m

Aktuální stav počasí

Zpráva byla vytvořena před 22 minutami, v 06:00 UTC
Jižní vítr 2 kt
Teplota 14°C
Vlhkost vzduchu 82%
Tlak 1014 hPa
Viditelnost 10 km a více
Zataženo ve výšce 2000 ft

METAR: SCFA 240600Z 19002KT 9999 OVC020 14/11 Q1014 NOSIG

Čas: 03:22 (06:22 UTC)

Předpověď počasí

Zpráva byla vytvořena před 2 hodinami a 6 minutami, v 04:16 UTC
Předpověď platná od 24 v 06 UTC do 25 v 06 UTC
Jižní vítr 6 kt
Viditelnost 10 km a více
Zataženo ve výšce 1800 ft
Změna
od 24 v 14 UTC do 24 v 16 UTC
Jihozápadní vítr 17 kt
Polojasno ve výšce 2000 ft
Změna
od 24 v 22 UTC do 25 v 00 UTC
Oblačno až skoro zataženo ve výšce 1700 ft
Změna
od 25 v 00 UTC do 25 v 02 UTC
Jižní vítr 7 kt

TAF: SCFA 240416Z 2406/2506 18006KT 9999 OVC018 TN14/2406Z TX16/2417Z BECMG 2414/2416 22017KT SCT020 BECMG 2422/2500 BKN017 BECMG 2500/2502 18007KT

Stav a předpovědi počasí z více než 4 000 letišť (zprávy METAR a TAF).

Červené a žluté tečky na mapě představují dostupné meteorologické stanice.

Když kurzor umístíte na tečku, zobrazí se název stanice.

Pak kliknutím zobrazíte stav a předpověď počasí.

Chcete-li změnit mapu, kliknutím na zelené tlačítko se znaménkem +mapu přiblížíte, kliknutím na zelené tlačítko se znaménkem – mapu oddálíte a kliknutím na zelené šipky přejdete na sousední mapy.


METAR-TAF: